sensor_id;sensor_type;location;lat;lon;timestamp;P1;durP1;ratioP1;P2;durP2;ratioP2
58208;SDS011;44006;52.028;4.696;2022-10-31T00:00:50;8.23;;;3.28;;
58208;SDS011;44006;52.028;4.696;2022-10-31T00:03:16;5.75;;;3.22;;
58208;SDS011;44006;52.028;4.696;2022-10-31T00:05:42;5.90;;;3.25;;
58208;SDS011;44006;52.028;4.696;2022-10-31T00:08:07;5.22;;;3.28;;
58208;SDS011;44006;52.028;4.696;2022-10-31T00:10:32;4.93;;;3.00;;
58208;SDS011;44006;52.028;4.696;2022-10-31T00:12:57;8.37;;;3.57;;
58208;SDS011;44006;52.028;4.696;2022-10-31T00:15:23;8.73;;;3.45;;
58208;SDS011;44006;52.028;4.696;2022-10-31T00:17:48;8.88;;;3.28;;
58208;SDS011;44006;52.028;4.696;2022-10-31T00:20:13;5.73;;;3.53;;
58208;SDS011;44006;52.028;4.696;2022-10-31T00:22:38;5.93;;;3.28;;
58208;SDS011;44006;52.028;4.696;2022-10-31T00:25:04;6.97;;;3.83;;
58208;SDS011;44006;52.028;4.696;2022-10-31T00:27:29;7.43;;;3.30;;
58208;SDS011;44006;52.028;4.696;2022-10-31T00:29:54;9.37;;;3.70;;
58208;SDS011;44006;52.028;4.696;2022-10-31T00:32:19;8.77;;;3.80;;
58208;SDS011;44006;52.028;4.696;2022-10-31T00:34:44;10.82;;;4.30;;
58208;SDS011;44006;52.028;4.696;2022-10-31T00:37:10;7.80;;;3.95;;
58208;SDS011;44006;52.028;4.696;2022-10-31T00:39:35;7.67;;;4.07;;
58208;SDS011;44006;52.028;4.696;2022-10-31T00:42:00;9.83;;;3.83;;
58208;SDS011;44006;52.028;4.696;2022-10-31T00:44:25;8.40;;;4.23;;
58208;SDS011;44006;52.028;4.696;2022-10-31T00:46:52;6.38;;;3.78;;
58208;SDS011;44006;52.028;4.696;2022-10-31T00:49:18;9.73;;;4.90;;
58208;SDS011;44006;52.028;4.696;2022-10-31T00:51:43;8.43;;;4.30;;
58208;SDS011;44006;52.028;4.696;2022-10-31T00:54:08;10.20;;;4.47;;
58208;SDS011;44006;52.028;4.696;2022-10-31T00:56:33;8.90;;;4.25;;
58208;SDS011;44006;52.028;4.696;2022-10-31T00:58:58;6.22;;;4.43;;
58208;SDS011;44006;52.028;4.696;2022-10-31T01:01:24;6.80;;;4.25;;
58208;SDS011;44006;52.028;4.696;2022-10-31T01:03:49;8.60;;;4.60;;
58208;SDS011;44006;52.028;4.696;2022-10-31T01:06:14;7.18;;;4.50;;
58208;SDS011;44006;52.028;4.696;2022-10-31T01:08:40;7.57;;;4.25;;
58208;SDS011;44006;52.028;4.696;2022-10-31T01:11:07;9.43;;;4.78;;
58208;SDS011;44006;52.028;4.696;2022-10-31T01:13:33;12.27;;;4.65;;
58208;SDS011;44006;52.028;4.696;2022-10-31T01:15:59;6.28;;;4.32;;
58208;SDS011;44006;52.028;4.696;2022-10-31T01:18:24;8.65;;;4.75;;
58208;SDS011;44006;52.028;4.696;2022-10-31T01:21:07;8.65;;;4.80;;
58208;SDS011;44006;52.028;4.696;2022-10-31T01:23:32;9.07;;;5.00;;
58208;SDS011;44006;52.028;4.696;2022-10-31T01:26:02;5.90;;;4.40;;
58208;SDS011;44006;52.028;4.696;2022-10-31T01:28:27;6.55;;;4.32;;
58208;SDS011;44006;52.028;4.696;2022-10-31T01:30:54;8.82;;;5.05;;
58208;SDS011;44006;52.028;4.696;2022-10-31T01:33:19;9.77;;;4.60;;
58208;SDS011;44006;52.028;4.696;2022-10-31T01:35:44;7.47;;;4.20;;
58208;SDS011;44006;52.028;4.696;2022-10-31T01:38:09;7.05;;;4.25;;
58208;SDS011;44006;52.028;4.696;2022-10-31T01:40:34;7.40;;;4.63;;
58208;SDS011;44006;52.028;4.696;2022-10-31T01:43:00;9.38;;;4.45;;
58208;SDS011;44006;52.028;4.696;2022-10-31T01:45:25;6.75;;;4.30;;
58208;SDS011;44006;52.028;4.696;2022-10-31T01:47:50;7.90;;;4.18;;
58208;SDS011;44006;52.028;4.696;2022-10-31T01:50:36;8.35;;;4.35;;
58208;SDS011;44006;52.028;4.696;2022-10-31T01:53:01;6.60;;;4.68;;
58208;SDS011;44006;52.028;4.696;2022-10-31T01:55:28;8.95;;;4.70;;
58208;SDS011;44006;52.028;4.696;2022-10-31T01:57:55;5.07;;;3.90;;
58208;SDS011;44006;52.028;4.696;2022-10-31T02:00:21;8.20;;;4.53;;
58208;SDS011;44006;52.028;4.696;2022-10-31T02:02:47;7.03;;;4.82;;
58208;SDS011;44006;52.028;4.696;2022-10-31T02:05:16;7.10;;;4.10;;
58208;SDS011;44006;52.028;4.696;2022-10-31T02:10:07;8.57;;;4.67;;
58208;SDS011;44006;52.028;4.696;2022-10-31T02:12:32;7.10;;;5.00;;
58208;SDS011;44006;52.028;4.696;2022-10-31T02:15:01;7.82;;;4.97;;
58208;SDS011;44006;52.028;4.696;2022-10-31T02:17:26;7.63;;;5.05;;
58208;SDS011;44006;52.028;4.696;2022-10-31T02:19:54;8.02;;;4.57;;
58208;SDS011;44006;52.028;4.696;2022-10-31T02:22:26;9.35;;;5.47;;
58208;SDS011;44006;52.028;4.696;2022-10-31T02:30:21;7.22;;;4.90;;
58208;SDS011;44006;52.028;4.696;2022-10-31T02:32:54;12.95;;;5.85;;
58208;SDS011;44006;52.028;4.696;2022-10-31T02:40:31;8.88;;;5.80;;
58208;SDS011;44006;52.028;4.696;2022-10-31T02:46:02;10.02;;;6.03;;
58208;SDS011;44006;52.028;4.696;2022-10-31T02:48:29;9.13;;;6.05;;
58208;SDS011;44006;52.028;4.696;2022-10-31T02:51:00;11.13;;;6.70;;
58208;SDS011;44006;52.028;4.696;2022-10-31T02:53:25;9.02;;;6.50;;
58208;SDS011;44006;52.028;4.696;2022-10-31T02:55:58;9.93;;;6.88;;
58208;SDS011;44006;52.028;4.696;2022-10-31T02:58:24;8.98;;;6.38;;
58208;SDS011;44006;52.028;4.696;2022-10-31T03:06:35;11.73;;;8.13;;
58208;SDS011;44006;52.028;4.696;2022-10-31T03:12:24;11.65;;;8.27;;
58208;SDS011;44006;52.028;4.696;2022-10-31T03:14:48;15.35;;;9.13;;
58208;SDS011;44006;52.028;4.696;2022-10-31T03:17:18;15.60;;;10.30;;
58208;SDS011;44006;52.028;4.696;2022-10-31T03:19:45;16.55;;;11.30;;
58208;SDS011;44006;52.028;4.696;2022-10-31T03:22:25;16.70;;;11.45;;
58208;SDS011;44006;52.028;4.696;2022-10-31T03:24:52;17.50;;;12.07;;
58208;SDS011;44006;52.028;4.696;2022-10-31T03:27:21;18.23;;;12.02;;
58208;SDS011;44006;52.028;4.696;2022-10-31T03:29:48;19.17;;;12.55;;
58208;SDS011;44006;52.028;4.696;2022-10-31T03:32:34;17.50;;;12.27;;
58208;SDS011;44006;52.028;4.696;2022-10-31T03:35:01;18.27;;;12.30;;
58208;SDS011;44006;52.028;4.696;2022-10-31T03:37:29;16.23;;;11.52;;
58208;SDS011;44006;52.028;4.696;2022-10-31T03:39:55;18.80;;;12.73;;
58208;SDS011;44006;52.028;4.696;2022-10-31T03:42:23;20.73;;;13.60;;
58208;SDS011;44006;52.028;4.696;2022-10-31T03:44:59;21.45;;;13.27;;
58208;SDS011;44006;52.028;4.696;2022-10-31T03:47:25;21.77;;;12.88;;
58208;SDS011;44006;52.028;4.696;2022-10-31T03:49:51;20.42;;;13.50;;
58208;SDS011;44006;52.028;4.696;2022-10-31T03:54:43;20.47;;;13.33;;
58208;SDS011;44006;52.028;4.696;2022-10-31T03:57:17;18.23;;;12.68;;
58208;SDS011;44006;52.028;4.696;2022-10-31T03:59:45;17.88;;;12.68;;
58208;SDS011;44006;52.028;4.696;2022-10-31T04:02:13;17.75;;;12.63;;
58208;SDS011;44006;52.028;4.696;2022-10-31T04:04:39;18.02;;;13.13;;
58208;SDS011;44006;52.028;4.696;2022-10-31T04:07:05;20.02;;;11.90;;
58208;SDS011;44006;52.028;4.696;2022-10-31T04:09:32;19.95;;;12.80;;
58208;SDS011;44006;52.028;4.696;2022-10-31T04:11:58;18.70;;;12.60;;
58208;SDS011;44006;52.028;4.696;2022-10-31T04:14:26;18.35;;;12.50;;
58208;SDS011;44006;52.028;4.696;2022-10-31T04:16:52;18.60;;;12.35;;
58208;SDS011;44006;52.028;4.696;2022-10-31T04:19:18;16.10;;;11.20;;
58208;SDS011;44006;52.028;4.696;2022-10-31T04:21:43;17.02;;;11.02;;
58208;SDS011;44006;52.028;4.696;2022-10-31T04:24:08;18.25;;;11.05;;
58208;SDS011;44006;52.028;4.696;2022-10-31T04:26:34;15.43;;;11.23;;
58208;SDS011;44006;52.028;4.696;2022-10-31T04:28:59;18.23;;;10.98;;
58208;SDS011;44006;52.028;4.696;2022-10-31T04:31:24;16.95;;;10.98;;
58208;SDS011;44006;52.028;4.696;2022-10-31T04:33:49;19.60;;;12.33;;
58208;SDS011;44006;52.028;4.696;2022-10-31T04:36:15;18.17;;;11.67;;
58208;SDS011;44006;52.028;4.696;2022-10-31T04:38:40;21.95;;;12.13;;
58208;SDS011;44006;52.028;4.696;2022-10-31T04:41:05;17.98;;;11.80;;
58208;SDS011;44006;52.028;4.696;2022-10-31T04:43:30;18.63;;;12.20;;
58208;SDS011;44006;52.028;4.696;2022-10-31T04:45:55;18.33;;;12.57;;
58208;SDS011;44006;52.028;4.696;2022-10-31T04:48:21;19.80;;;12.33;;
58208;SDS011;44006;52.028;4.696;2022-10-31T04:50:46;17.80;;;12.27;;
58208;SDS011;44006;52.028;4.696;2022-10-31T04:53:11;18.13;;;12.38;;
58208;SDS011;44006;52.028;4.696;2022-10-31T04:55:36;20.05;;;12.68;;
58208;SDS011;44006;52.028;4.696;2022-10-31T04:58:02;19.45;;;12.43;;
58208;SDS011;44006;52.028;4.696;2022-10-31T05:00:27;20.90;;;12.38;;
58208;SDS011;44006;52.028;4.696;2022-10-31T05:02:53;20.33;;;12.38;;
58208;SDS011;44006;52.028;4.696;2022-10-31T05:05:20;19.48;;;12.60;;
58208;SDS011;44006;52.028;4.696;2022-10-31T05:07:47;20.45;;;12.65;;
58208;SDS011;44006;52.028;4.696;2022-10-31T05:10:13;21.63;;;13.40;;
58208;SDS011;44006;52.028;4.696;2022-10-31T05:12:46;21.67;;;13.63;;
58208;SDS011;44006;52.028;4.696;2022-10-31T05:15:12;21.00;;;13.55;;
58208;SDS011;44006;52.028;4.696;2022-10-31T05:17:37;19.75;;;13.25;;
58208;SDS011;44006;52.028;4.696;2022-10-31T05:20:02;22.87;;;13.87;;
58208;SDS011;44006;52.028;4.696;2022-10-31T05:22:28;20.70;;;12.68;;
58208;SDS011;44006;52.028;4.696;2022-10-31T05:24:53;20.60;;;12.95;;
58208;SDS011;44006;52.028;4.696;2022-10-31T05:27:19;24.67;;;12.82;;
58208;SDS011;44006;52.028;4.696;2022-10-31T05:29:44;18.13;;;12.23;;
58208;SDS011;44006;52.028;4.696;2022-10-31T05:32:09;21.93;;;13.30;;
58208;SDS011;44006;52.028;4.696;2022-10-31T05:34:34;19.48;;;12.65;;
58208;SDS011;44006;52.028;4.696;2022-10-31T05:36:59;17.45;;;11.93;;
58208;SDS011;44006;52.028;4.696;2022-10-31T05:39:27;20.33;;;12.30;;
58208;SDS011;44006;52.028;4.696;2022-10-31T05:41:52;18.77;;;12.68;;
58208;SDS011;44006;52.028;4.696;2022-10-31T05:44:17;18.67;;;12.80;;
58208;SDS011;44006;52.028;4.696;2022-10-31T05:46:42;18.40;;;12.13;;
58208;SDS011;44006;52.028;4.696;2022-10-31T05:49:08;17.23;;;12.10;;
58208;SDS011;44006;52.028;4.696;2022-10-31T05:51:33;18.67;;;12.35;;
58208;SDS011;44006;52.028;4.696;2022-10-31T05:53:58;18.70;;;11.80;;
58208;SDS011;44006;52.028;4.696;2022-10-31T05:56:23;16.10;;;11.80;;
58208;SDS011;44006;52.028;4.696;2022-10-31T05:58:48;16.90;;;12.27;;
58208;SDS011;44006;52.028;4.696;2022-10-31T06:01:14;18.77;;;12.43;;
58208;SDS011;44006;52.028;4.696;2022-10-31T06:03:39;19.17;;;12.90;;
58208;SDS011;44006;52.028;4.696;2022-10-31T06:06:04;19.50;;;12.63;;
58208;SDS011;44006;52.028;4.696;2022-10-31T06:08:29;20.42;;;12.02;;
58208;SDS011;44006;52.028;4.696;2022-10-31T06:10:54;19.35;;;12.85;;
58208;SDS011;44006;52.028;4.696;2022-10-31T06:13:20;19.25;;;13.32;;
58208;SDS011;44006;52.028;4.696;2022-10-31T06:15:45;21.35;;;13.50;;
58208;SDS011;44006;52.028;4.696;2022-10-31T06:18:11;20.70;;;13.60;;
58208;SDS011;44006;52.028;4.696;2022-10-31T06:20:36;20.10;;;13.10;;
58208;SDS011;44006;52.028;4.696;2022-10-31T06:23:01;19.30;;;13.55;;
58208;SDS011;44006;52.028;4.696;2022-10-31T06:25:27;20.77;;;13.98;;
58208;SDS011;44006;52.028;4.696;2022-10-31T06:27:52;20.17;;;13.43;;
58208;SDS011;44006;52.028;4.696;2022-10-31T06:30:18;22.15;;;12.90;;
58208;SDS011;44006;52.028;4.696;2022-10-31T06:32:43;18.38;;;12.82;;
58208;SDS011;44006;52.028;4.696;2022-10-31T06:35:09;19.13;;;13.27;;
58208;SDS011;44006;52.028;4.696;2022-10-31T06:37:34;22.63;;;14.30;;
58208;SDS011;44006;52.028;4.696;2022-10-31T06:39:59;19.33;;;13.13;;
58208;SDS011;44006;52.028;4.696;2022-10-31T06:42:24;23.53;;;13.10;;
58208;SDS011;44006;52.028;4.696;2022-10-31T06:44:51;21.17;;;13.87;;
58208;SDS011;44006;52.028;4.696;2022-10-31T06:47:16;26.63;;;13.73;;
58208;SDS011;44006;52.028;4.696;2022-10-31T06:49:41;29.65;;;14.65;;
58208;SDS011;44006;52.028;4.696;2022-10-31T06:52:06;26.00;;;14.85;;
58208;SDS011;44006;52.028;4.696;2022-10-31T06:54:32;25.92;;;14.38;;
58208;SDS011;44006;52.028;4.696;2022-10-31T06:56:57;30.38;;;14.80;;
58208;SDS011;44006;52.028;4.696;2022-10-31T06:59:22;25.67;;;14.48;;
58208;SDS011;44006;52.028;4.696;2022-10-31T07:01:49;27.83;;;14.82;;
58208;SDS011;44006;52.028;4.696;2022-10-31T07:04:14;27.95;;;14.70;;
58208;SDS011;44006;52.028;4.696;2022-10-31T07:06:41;29.77;;;15.65;;
58208;SDS011;44006;52.028;4.696;2022-10-31T07:09:08;32.72;;;16.00;;
58208;SDS011;44006;52.028;4.696;2022-10-31T07:11:35;28.83;;;15.98;;
58208;SDS011;44006;52.028;4.696;2022-10-31T07:14:00;31.20;;;16.20;;
58208;SDS011;44006;52.028;4.696;2022-10-31T07:16:26;28.40;;;16.02;;
58208;SDS011;44006;52.028;4.696;2022-10-31T07:18:51;32.22;;;16.52;;
58208;SDS011;44006;52.028;4.696;2022-10-31T07:21:16;30.20;;;16.60;;
58208;SDS011;44006;52.028;4.696;2022-10-31T07:23:41;32.50;;;17.98;;
58208;SDS011;44006;52.028;4.696;2022-10-31T07:26:07;27.70;;;17.27;;
58208;SDS011;44006;52.028;4.696;2022-10-31T07:28:32;37.42;;;19.05;;
58208;SDS011;44006;52.028;4.696;2022-10-31T07:30:58;38.05;;;20.27;;
58208;SDS011;44006;52.028;4.696;2022-10-31T07:33:24;38.47;;;20.13;;
58208;SDS011;44006;52.028;4.696;2022-10-31T07:35:52;32.70;;;18.65;;
58208;SDS011;44006;52.028;4.696;2022-10-31T07:38:18;31.23;;;18.52;;
58208;SDS011;44006;52.028;4.696;2022-10-31T07:40:43;34.60;;;19.80;;
58208;SDS011;44006;52.028;4.696;2022-10-31T07:43:09;31.92;;;19.45;;
58208;SDS011;44006;52.028;4.696;2022-10-31T07:45:35;33.83;;;19.15;;
58208;SDS011;44006;52.028;4.696;2022-10-31T07:48:01;31.30;;;19.45;;
58208;SDS011;44006;52.028;4.696;2022-10-31T07:50:30;31.58;;;18.92;;
58208;SDS011;44006;52.028;4.696;2022-10-31T07:53:07;33.47;;;18.88;;
58208;SDS011;44006;52.028;4.696;2022-10-31T07:55:32;36.78;;;21.20;;
58208;SDS011;44006;52.028;4.696;2022-10-31T07:57:59;36.72;;;20.67;;
58208;SDS011;44006;52.028;4.696;2022-10-31T08:00:24;33.83;;;20.38;;
58208;SDS011;44006;52.028;4.696;2022-10-31T08:02:57;35.38;;;20.52;;
58208;SDS011;44006;52.028;4.696;2022-10-31T08:05:22;37.05;;;20.77;;
58208;SDS011;44006;52.028;4.696;2022-10-31T08:07:47;40.03;;;22.80;;
58208;SDS011;44006;52.028;4.696;2022-10-31T08:10:16;43.95;;;21.90;;
58208;SDS011;44006;52.028;4.696;2022-10-31T08:12:41;35.13;;;20.90;;
58208;SDS011;44006;52.028;4.696;2022-10-31T08:15:07;39.22;;;22.27;;
58208;SDS011;44006;52.028;4.696;2022-10-31T08:17:36;37.33;;;21.08;;
58208;SDS011;44006;52.028;4.696;2022-10-31T08:20:02;39.15;;;22.67;;
58208;SDS011;44006;52.028;4.696;2022-10-31T08:22:31;40.05;;;21.67;;
58208;SDS011;44006;52.028;4.696;2022-10-31T08:24:56;36.80;;;21.63;;
58208;SDS011;44006;52.028;4.696;2022-10-31T08:27:21;35.97;;;22.25;;
58208;SDS011;44006;52.028;4.696;2022-10-31T08:29:48;37.38;;;21.23;;
58208;SDS011;44006;52.028;4.696;2022-10-31T08:32:14;42.53;;;22.30;;
58208;SDS011;44006;52.028;4.696;2022-10-31T08:34:39;40.40;;;24.02;;
58208;SDS011;44006;52.028;4.696;2022-10-31T08:37:04;38.40;;;22.38;;
58208;SDS011;44006;52.028;4.696;2022-10-31T08:39:30;39.30;;;23.15;;
58208;SDS011;44006;52.028;4.696;2022-10-31T08:41:55;40.70;;;23.25;;
58208;SDS011;44006;52.028;4.696;2022-10-31T08:44:22;37.88;;;21.90;;
58208;SDS011;44006;52.028;4.696;2022-10-31T08:46:47;40.95;;;23.17;;
58208;SDS011;44006;52.028;4.696;2022-10-31T08:49:12;39.67;;;22.50;;
58208;SDS011;44006;52.028;4.696;2022-10-31T08:51:38;34.30;;;22.15;;
58208;SDS011;44006;52.028;4.696;2022-10-31T08:54:03;35.38;;;22.58;;
58208;SDS011;44006;52.028;4.696;2022-10-31T08:56:28;33.13;;;22.85;;
58208;SDS011;44006;52.028;4.696;2022-10-31T08:58:53;34.35;;;22.13;;
58208;SDS011;44006;52.028;4.696;2022-10-31T09:01:19;35.40;;;22.35;;
58208;SDS011;44006;52.028;4.696;2022-10-31T09:03:45;32.72;;;22.30;;
58208;SDS011;44006;52.028;4.696;2022-10-31T09:06:10;37.63;;;23.50;;
58208;SDS011;44006;52.028;4.696;2022-10-31T09:08:35;35.95;;;23.23;;
58208;SDS011;44006;52.028;4.696;2022-10-31T09:11:01;34.17;;;21.48;;
58208;SDS011;44006;52.028;4.696;2022-10-31T09:13:26;35.92;;;21.42;;
58208;SDS011;44006;52.028;4.696;2022-10-31T09:15:52;34.78;;;21.58;;
58208;SDS011;44006;52.028;4.696;2022-10-31T09:18:23;34.45;;;20.92;;
58208;SDS011;44006;52.028;4.696;2022-10-31T09:20:48;34.57;;;22.53;;
58208;SDS011;44006;52.028;4.696;2022-10-31T09:23:17;31.40;;;20.95;;
58208;SDS011;44006;52.028;4.696;2022-10-31T09:25:44;31.80;;;21.52;;
58208;SDS011;44006;52.028;4.696;2022-10-31T09:28:11;32.47;;;21.80;;
58208;SDS011;44006;52.028;4.696;2022-10-31T09:30:39;38.05;;;22.67;;
58208;SDS011;44006;52.028;4.696;2022-10-31T09:33:06;37.85;;;22.30;;
58208;SDS011;44006;52.028;4.696;2022-10-31T09:35:32;31.15;;;22.38;;
58208;SDS011;44006;52.028;4.696;2022-10-31T09:38:02;38.13;;;22.20;;
58208;SDS011;44006;52.028;4.696;2022-10-31T09:45:47;36.08;;;22.10;;
58208;SDS011;44006;52.028;4.696;2022-10-31T09:50:58;37.45;;;24.05;;
58208;SDS011;44006;52.028;4.696;2022-10-31T09:53:36;41.65;;;22.38;;
58208;SDS011;44006;52.028;4.696;2022-10-31T09:56:04;41.67;;;23.20;;
58208;SDS011;44006;52.028;4.696;2022-10-31T09:58:30;37.40;;;24.27;;
58208;SDS011;44006;52.028;4.696;2022-10-31T10:00:58;43.00;;;25.55;;
58208;SDS011;44006;52.028;4.696;2022-10-31T10:05:51;43.15;;;26.38;;
58208;SDS011;44006;52.028;4.696;2022-10-31T10:08:19;44.40;;;26.85;;
58208;SDS011;44006;52.028;4.696;2022-10-31T10:10:48;42.47;;;26.02;;
58208;SDS011;44006;52.028;4.696;2022-10-31T10:13:28;40.50;;;26.00;;
58208;SDS011;44006;52.028;4.696;2022-10-31T10:18:55;50.92;;;26.48;;
58208;SDS011;44006;52.028;4.696;2022-10-31T10:24:00;42.50;;;26.52;;
58208;SDS011;44006;52.028;4.696;2022-10-31T10:26:39;43.72;;;25.92;;
58208;SDS011;44006;52.028;4.696;2022-10-31T10:29:25;43.13;;;26.60;;
58208;SDS011;44006;52.028;4.696;2022-10-31T10:31:52;46.00;;;25.85;;
58208;SDS011;44006;52.028;4.696;2022-10-31T10:34:26;43.60;;;26.52;;
58208;SDS011;44006;52.028;4.696;2022-10-31T10:37:03;45.58;;;26.67;;
58208;SDS011;44006;52.028;4.696;2022-10-31T10:39:30;45.67;;;26.27;;
58208;SDS011;44006;52.028;4.696;2022-10-31T10:41:58;43.08;;;26.65;;
58208;SDS011;44006;52.028;4.696;2022-10-31T10:44:47;46.58;;;28.02;;
58208;SDS011;44006;52.028;4.696;2022-10-31T10:47:38;41.25;;;26.55;;
58208;SDS011;44006;52.028;4.696;2022-10-31T10:55:30;48.03;;;28.13;;
58208;SDS011;44006;52.028;4.696;2022-10-31T10:58:02;48.67;;;28.58;;
58208;SDS011;44006;52.028;4.696;2022-10-31T11:00:32;48.50;;;28.80;;
58208;SDS011;44006;52.028;4.696;2022-10-31T11:03:00;46.90;;;28.23;;
58208;SDS011;44006;52.028;4.696;2022-10-31T11:07:52;48.53;;;28.23;;
58208;SDS011;44006;52.028;4.696;2022-10-31T11:10:18;41.80;;;27.63;;
58208;SDS011;44006;52.028;4.696;2022-10-31T11:12:44;44.47;;;25.58;;
58208;SDS011;44006;52.028;4.696;2022-10-31T11:15:18;49.90;;;28.35;;
58208;SDS011;44006;52.028;4.696;2022-10-31T11:17:46;55.83;;;28.67;;
58208;SDS011;44006;52.028;4.696;2022-10-31T11:22:39;43.05;;;27.63;;
58208;SDS011;44006;52.028;4.696;2022-10-31T11:25:24;40.17;;;26.80;;
58208;SDS011;44006;52.028;4.696;2022-10-31T11:27:59;42.60;;;25.58;;
58208;SDS011;44006;52.028;4.696;2022-10-31T11:30:26;47.60;;;26.02;;
58208;SDS011;44006;52.028;4.696;2022-10-31T11:32:51;44.00;;;28.02;;
58208;SDS011;44006;52.028;4.696;2022-10-31T11:35:18;49.65;;;28.02;;
58208;SDS011;44006;52.028;4.696;2022-10-31T11:37:44;46.00;;;27.60;;
58208;SDS011;44006;52.028;4.696;2022-10-31T11:40:17;45.38;;;29.33;;
58208;SDS011;44006;52.028;4.696;2022-10-31T11:42:42;42.95;;;27.20;;
58208;SDS011;44006;52.028;4.696;2022-10-31T11:45:18;44.50;;;27.42;;
58208;SDS011;44006;52.028;4.696;2022-10-31T11:47:52;44.85;;;27.00;;
58208;SDS011;44006;52.028;4.696;2022-10-31T11:50:21;46.03;;;26.67;;
58208;SDS011;44006;52.028;4.696;2022-10-31T11:52:48;47.53;;;27.67;;
58208;SDS011;44006;52.028;4.696;2022-10-31T11:55:16;42.00;;;25.60;;
58208;SDS011;44006;52.028;4.696;2022-10-31T11:57:51;49.05;;;27.92;;
58208;SDS011;44006;52.028;4.696;2022-10-31T12:00:22;43.60;;;28.00;;
58208;SDS011;44006;52.028;4.696;2022-10-31T12:02:48;45.03;;;27.35;;
58208;SDS011;44006;52.028;4.696;2022-10-31T12:05:18;43.30;;;26.38;;
58208;SDS011;44006;52.028;4.696;2022-10-31T12:07:48;43.47;;;27.35;;
58208;SDS011;44006;52.028;4.696;2022-10-31T12:10:14;47.72;;;27.45;;
58208;SDS011;44006;52.028;4.696;2022-10-31T12:15:44;42.97;;;25.88;;
58208;SDS011;44006;52.028;4.696;2022-10-31T12:30:56;48.33;;;28.05;;
58208;SDS011;44006;52.028;4.696;2022-10-31T12:59:24;50.80;;;30.42;;
58208;SDS011;44006;52.028;4.696;2022-10-31T13:04:35;49.40;;;29.13;;
58208;SDS011;44006;52.028;4.696;2022-10-31T13:07:02;51.63;;;30.50;;
58208;SDS011;44006;52.028;4.696;2022-10-31T13:09:38;57.50;;;33.28;;
58208;SDS011;44006;52.028;4.696;2022-10-31T13:12:07;55.28;;;33.63;;
58208;SDS011;44006;52.028;4.696;2022-10-31T13:14:39;54.22;;;31.00;;
58208;SDS011;44006;52.028;4.696;2022-10-31T13:17:06;58.28;;;33.35;;
58208;SDS011;44006;52.028;4.696;2022-10-31T13:19:43;59.08;;;33.85;;
58208;SDS011;44006;52.028;4.696;2022-10-31T13:22:09;61.25;;;33.08;;
58208;SDS011;44006;52.028;4.696;2022-10-31T13:24:54;63.08;;;35.40;;
58208;SDS011;44006;52.028;4.696;2022-10-31T13:27:28;63.67;;;34.28;;
58208;SDS011;44006;52.028;4.696;2022-10-31T13:29:58;63.55;;;35.45;;
58208;SDS011;44006;52.028;4.696;2022-10-31T13:32:25;60.00;;;34.83;;
58208;SDS011;44006;52.028;4.696;2022-10-31T13:34:52;61.00;;;35.00;;
58208;SDS011;44006;52.028;4.696;2022-10-31T13:45:13;66.20;;;34.47;;
58208;SDS011;44006;52.028;4.696;2022-10-31T13:47:38;57.05;;;33.03;;
58208;SDS011;44006;52.028;4.696;2022-10-31T13:50:14;53.25;;;33.15;;
58208;SDS011;44006;52.028;4.696;2022-10-31T13:52:45;63.10;;;35.42;;
58208;SDS011;44006;52.028;4.696;2022-10-31T13:57:55;65.43;;;35.25;;
58208;SDS011;44006;52.028;4.696;2022-10-31T14:02:48;60.20;;;36.20;;
58208;SDS011;44006;52.028;4.696;2022-10-31T14:05:20;70.85;;;37.78;;
58208;SDS011;44006;52.028;4.696;2022-10-31T14:07:46;72.32;;;37.42;;
58208;SDS011;44006;52.028;4.696;2022-10-31T14:10:25;71.57;;;38.40;;
58208;SDS011;44006;52.028;4.696;2022-10-31T14:12:52;70.72;;;36.75;;
58208;SDS011;44006;52.028;4.696;2022-10-31T14:15:19;68.53;;;38.25;;
58208;SDS011;44006;52.028;4.696;2022-10-31T14:17:55;70.55;;;36.72;;
58208;SDS011;44006;52.028;4.696;2022-10-31T14:22:46;70.55;;;38.90;;
58208;SDS011;44006;52.028;4.696;2022-10-31T14:27:56;66.25;;;38.00;;
58208;SDS011;44006;52.028;4.696;2022-10-31T14:30:23;68.95;;;38.80;;
58208;SDS011;44006;52.028;4.696;2022-10-31T14:32:52;66.90;;;37.55;;
58208;SDS011;44006;52.028;4.696;2022-10-31T14:35:18;74.18;;;38.53;;
58208;SDS011;44006;52.028;4.696;2022-10-31T14:40:46;73.80;;;40.75;;
58208;SDS011;44006;52.028;4.696;2022-10-31T14:51:19;67.13;;;35.90;;
58208;SDS011;44006;52.028;4.696;2022-10-31T14:53:49;71.45;;;37.38;;
58208;SDS011;44006;52.028;4.696;2022-10-31T14:56:17;66.32;;;37.05;;
58208;SDS011;44006;52.028;4.696;2022-10-31T14:58:45;68.30;;;35.08;;
58208;SDS011;44006;52.028;4.696;2022-10-31T15:01:48;61.53;;;34.63;;
58208;SDS011;44006;52.028;4.696;2022-10-31T15:07:02;70.05;;;34.67;;
58208;SDS011;44006;52.028;4.696;2022-10-31T15:09:34;67.97;;;36.10;;
58208;SDS011;44006;52.028;4.696;2022-10-31T15:12:01;62.70;;;34.78;;
58208;SDS011;44006;52.028;4.696;2022-10-31T15:14:39;59.85;;;33.40;;
58208;SDS011;44006;52.028;4.696;2022-10-31T15:17:05;68.55;;;35.88;;
58208;SDS011;44006;52.028;4.696;2022-10-31T15:19:30;65.38;;;34.17;;
58208;SDS011;44006;52.028;4.696;2022-10-31T15:21:58;69.65;;;34.05;;
58208;SDS011;44006;52.028;4.696;2022-10-31T15:26:53;65.72;;;33.22;;
58208;SDS011;44006;52.028;4.696;2022-10-31T15:29:22;70.63;;;35.70;;
58208;SDS011;44006;52.028;4.696;2022-10-31T15:31:56;68.55;;;35.72;;
58208;SDS011;44006;52.028;4.696;2022-10-31T15:34:25;66.30;;;35.97;;
58208;SDS011;44006;52.028;4.696;2022-10-31T15:36:51;64.47;;;34.30;;
58208;SDS011;44006;52.028;4.696;2022-10-31T15:41:51;62.40;;;34.63;;
58208;SDS011;44006;52.028;4.696;2022-10-31T15:46:53;63.20;;;35.15;;
58208;SDS011;44006;52.028;4.696;2022-10-31T15:49:46;67.53;;;35.63;;
58208;SDS011;44006;52.028;4.696;2022-10-31T15:52:11;65.15;;;35.03;;
58208;SDS011;44006;52.028;4.696;2022-10-31T15:57:09;65.60;;;34.30;;
58208;SDS011;44006;52.028;4.696;2022-10-31T16:02:07;70.43;;;36.83;;
58208;SDS011;44006;52.028;4.696;2022-10-31T16:04:33;60.95;;;34.08;;
58208;SDS011;44006;52.028;4.696;2022-10-31T16:07:03;63.40;;;33.72;;
58208;SDS011;44006;52.028;4.696;2022-10-31T16:09:36;73.93;;;35.05;;
58208;SDS011;44006;52.028;4.696;2022-10-31T16:12:02;64.43;;;35.15;;
58208;SDS011;44006;52.028;4.696;2022-10-31T16:14:28;65.28;;;34.45;;
58208;SDS011;44006;52.028;4.696;2022-10-31T16:16:58;63.58;;;35.92;;
58208;SDS011;44006;52.028;4.696;2022-10-31T16:19:32;63.53;;;34.60;;
58208;SDS011;44006;52.028;4.696;2022-10-31T16:22:24;60.92;;;34.17;;
58208;SDS011;44006;52.028;4.696;2022-10-31T16:24:49;64.82;;;34.17;;
58208;SDS011;44006;52.028;4.696;2022-10-31T16:27:22;67.47;;;33.42;;
58208;SDS011;44006;52.028;4.696;2022-10-31T16:29:53;63.55;;;33.67;;
58208;SDS011;44006;52.028;4.696;2022-10-31T16:32:26;60.53;;;32.17;;
58208;SDS011;44006;52.028;4.696;2022-10-31T16:37:28;58.55;;;30.73;;
58208;SDS011;44006;52.028;4.696;2022-10-31T16:39:55;55.92;;;32.20;;
58208;SDS011;44006;52.028;4.696;2022-10-31T16:42:20;68.47;;;33.13;;
58208;SDS011;44006;52.028;4.696;2022-10-31T16:44:49;56.47;;;31.73;;
58208;SDS011;44006;52.028;4.696;2022-10-31T16:47:16;60.10;;;32.35;;
58208;SDS011;44006;52.028;4.696;2022-10-31T16:49:42;58.20;;;30.52;;
58208;SDS011;44006;52.028;4.696;2022-10-31T16:52:08;61.22;;;29.33;;
58208;SDS011;44006;52.028;4.696;2022-10-31T16:54:36;50.92;;;28.83;;